sensor_id;sensor_type;location;lat;lon;timestamp;P1;durP1;ratioP1;P2;durP2;ratioP2
70406;SDS011;57821;52.202;0.154;2022-07-11T00:02:09;5.82;;;1.63;;
70406;SDS011;57821;52.202;0.154;2022-07-11T00:04:36;6.65;;;2.17;;
70406;SDS011;57821;52.202;0.154;2022-07-11T00:07:03;5.43;;;2.08;;
70406;SDS011;57821;52.202;0.154;2022-07-11T00:09:30;5.68;;;2.10;;
70406;SDS011;57821;52.202;0.154;2022-07-11T00:11:57;5.55;;;1.88;;
70406;SDS011;57821;52.202;0.154;2022-07-11T00:14:25;5.80;;;1.98;;
70406;SDS011;57821;52.202;0.154;2022-07-11T00:16:51;5.63;;;1.65;;
70406;SDS011;57821;52.202;0.154;2022-07-11T00:19:19;7.07;;;1.67;;
70406;SDS011;57821;52.202;0.154;2022-07-11T00:21:50;5.68;;;2.03;;
70406;SDS011;57821;52.202;0.154;2022-07-11T00:24:17;6.82;;;1.98;;
70406;SDS011;57821;52.202;0.154;2022-07-11T00:26:47;6.38;;;1.70;;
70406;SDS011;57821;52.202;0.154;2022-07-11T00:29:15;4.68;;;1.80;;
70406;SDS011;57821;52.202;0.154;2022-07-11T00:31:42;5.82;;;1.92;;
70406;SDS011;57821;52.202;0.154;2022-07-11T00:34:09;4.40;;;1.63;;
70406;SDS011;57821;52.202;0.154;2022-07-11T00:36:36;6.72;;;1.67;;
70406;SDS011;57821;52.202;0.154;2022-07-11T00:39:03;6.88;;;1.60;;
70406;SDS011;57821;52.202;0.154;2022-07-11T00:41:30;8.10;;;2.22;;
70406;SDS011;57821;52.202;0.154;2022-07-11T00:43:57;5.40;;;1.60;;
70406;SDS011;57821;52.202;0.154;2022-07-11T00:46:26;5.30;;;1.70;;
70406;SDS011;57821;52.202;0.154;2022-07-11T00:48:53;4.90;;;1.95;;
70406;SDS011;57821;52.202;0.154;2022-07-11T00:51:20;4.32;;;1.70;;
70406;SDS011;57821;52.202;0.154;2022-07-11T00:53:49;6.43;;;1.88;;
70406;SDS011;57821;52.202;0.154;2022-07-11T00:56:21;7.40;;;1.88;;
70406;SDS011;57821;52.202;0.154;2022-07-11T01:01:15;6.18;;;2.20;;
70406;SDS011;57821;52.202;0.154;2022-07-11T01:03:42;8.23;;;2.00;;
70406;SDS011;57821;52.202;0.154;2022-07-11T01:06:10;7.10;;;2.47;;
70406;SDS011;57821;52.202;0.154;2022-07-11T01:08:37;6.35;;;1.73;;
70406;SDS011;57821;52.202;0.154;2022-07-11T01:11:05;6.18;;;1.80;;
70406;SDS011;57821;52.202;0.154;2022-07-11T01:13:34;5.60;;;2.03;;
70406;SDS011;57821;52.202;0.154;2022-07-11T01:16:07;4.35;;;1.75;;
70406;SDS011;57821;52.202;0.154;2022-07-11T01:18:37;7.00;;;2.00;;
70406;SDS011;57821;52.202;0.154;2022-07-11T01:21:05;5.07;;;2.20;;
70406;SDS011;57821;52.202;0.154;2022-07-11T01:23:36;4.50;;;1.83;;
70406;SDS011;57821;52.202;0.154;2022-07-11T01:26:03;6.55;;;2.00;;
70406;SDS011;57821;52.202;0.154;2022-07-11T01:28:30;8.63;;;2.25;;
70406;SDS011;57821;52.202;0.154;2022-07-11T01:30:57;6.15;;;2.92;;
70406;SDS011;57821;52.202;0.154;2022-07-11T01:33:23;5.57;;;2.22;;
70406;SDS011;57821;52.202;0.154;2022-07-11T01:35:50;9.43;;;2.33;;
70406;SDS011;57821;52.202;0.154;2022-07-11T01:38:16;7.47;;;2.22;;
70406;SDS011;57821;52.202;0.154;2022-07-11T01:40:43;5.68;;;2.20;;
70406;SDS011;57821;52.202;0.154;2022-07-11T01:43:09;7.32;;;1.90;;
70406;SDS011;57821;52.202;0.154;2022-07-11T01:45:36;5.13;;;2.30;;
70406;SDS011;57821;52.202;0.154;2022-07-11T01:48:03;4.63;;;2.08;;
70406;SDS011;57821;52.202;0.154;2022-07-11T01:50:29;5.75;;;1.90;;
70406;SDS011;57821;52.202;0.154;2022-07-11T01:52:56;4.65;;;1.92;;
70406;SDS011;57821;52.202;0.154;2022-07-11T01:55:23;7.72;;;2.17;;
70406;SDS011;57821;52.202;0.154;2022-07-11T01:57:49;5.13;;;1.92;;
70406;SDS011;57821;52.202;0.154;2022-07-11T02:00:16;5.10;;;1.85;;
70406;SDS011;57821;52.202;0.154;2022-07-11T02:02:42;4.90;;;1.90;;
70406;SDS011;57821;52.202;0.154;2022-07-11T02:05:09;4.70;;;1.90;;
70406;SDS011;57821;52.202;0.154;2022-07-11T02:07:36;8.48;;;2.20;;
70406;SDS011;57821;52.202;0.154;2022-07-11T02:10:02;7.65;;;1.90;;
70406;SDS011;57821;52.202;0.154;2022-07-11T02:12:29;6.55;;;1.90;;
70406;SDS011;57821;52.202;0.154;2022-07-11T02:14:55;8.20;;;2.13;;
70406;SDS011;57821;52.202;0.154;2022-07-11T02:17:22;4.53;;;2.08;;
70406;SDS011;57821;52.202;0.154;2022-07-11T02:19:49;5.22;;;1.83;;
70406;SDS011;57821;52.202;0.154;2022-07-11T02:22:15;5.90;;;2.28;;
70406;SDS011;57821;52.202;0.154;2022-07-11T02:24:42;4.82;;;1.67;;
70406;SDS011;57821;52.202;0.154;2022-07-11T02:27:08;8.10;;;2.15;;
70406;SDS011;57821;52.202;0.154;2022-07-11T02:29:35;5.50;;;1.92;;
70406;SDS011;57821;52.202;0.154;2022-07-11T02:32:01;7.45;;;2.05;;
70406;SDS011;57821;52.202;0.154;2022-07-11T02:34:28;4.93;;;1.92;;
70406;SDS011;57821;52.202;0.154;2022-07-11T02:36:55;9.20;;;2.50;;
70406;SDS011;57821;52.202;0.154;2022-07-11T02:39:21;5.75;;;2.08;;
70406;SDS011;57821;52.202;0.154;2022-07-11T02:41:48;7.07;;;2.50;;
70406;SDS011;57821;52.202;0.154;2022-07-11T02:44:14;5.18;;;1.98;;
70406;SDS011;57821;52.202;0.154;2022-07-11T02:46:41;8.73;;;2.10;;
70406;SDS011;57821;52.202;0.154;2022-07-11T02:49:07;5.28;;;1.70;;
70406;SDS011;57821;52.202;0.154;2022-07-11T02:51:34;4.95;;;1.90;;
70406;SDS011;57821;52.202;0.154;2022-07-11T02:54:01;6.63;;;2.00;;
70406;SDS011;57821;52.202;0.154;2022-07-11T02:56:27;5.28;;;2.15;;
70406;SDS011;57821;52.202;0.154;2022-07-11T02:58:54;4.40;;;2.05;;
70406;SDS011;57821;52.202;0.154;2022-07-11T03:01:20;5.70;;;1.85;;
70406;SDS011;57821;52.202;0.154;2022-07-11T03:03:47;6.20;;;2.40;;
70406;SDS011;57821;52.202;0.154;2022-07-11T03:06:14;6.45;;;2.30;;
70406;SDS011;57821;52.202;0.154;2022-07-11T03:08:40;5.13;;;2.50;;
70406;SDS011;57821;52.202;0.154;2022-07-11T03:11:07;5.53;;;1.98;;
70406;SDS011;57821;52.202;0.154;2022-07-11T03:13:33;6.70;;;2.10;;
70406;SDS011;57821;52.202;0.154;2022-07-11T03:16:00;5.97;;;2.45;;
70406;SDS011;57821;52.202;0.154;2022-07-11T03:18:27;7.13;;;2.70;;
70406;SDS011;57821;52.202;0.154;2022-07-11T03:20:54;6.03;;;2.75;;
70406;SDS011;57821;52.202;0.154;2022-07-11T03:23:20;4.78;;;2.03;;
70406;SDS011;57821;52.202;0.154;2022-07-11T03:25:47;8.85;;;2.50;;
70406;SDS011;57821;52.202;0.154;2022-07-11T03:28:13;5.35;;;2.05;;
70406;SDS011;57821;52.202;0.154;2022-07-11T03:30:40;5.57;;;2.25;;
70406;SDS011;57821;52.202;0.154;2022-07-11T03:33:06;7.53;;;2.50;;
70406;SDS011;57821;52.202;0.154;2022-07-11T03:35:33;6.57;;;2.60;;
70406;SDS011;57821;52.202;0.154;2022-07-11T03:38:00;6.53;;;2.28;;
70406;SDS011;57821;52.202;0.154;2022-07-11T03:40:26;5.88;;;2.30;;
70406;SDS011;57821;52.202;0.154;2022-07-11T03:42:53;7.95;;;2.55;;
70406;SDS011;57821;52.202;0.154;2022-07-11T03:45:19;6.20;;;2.60;;
70406;SDS011;57821;52.202;0.154;2022-07-11T03:47:46;6.47;;;2.72;;
70406;SDS011;57821;52.202;0.154;2022-07-11T03:50:12;7.97;;;2.67;;
70406;SDS011;57821;52.202;0.154;2022-07-11T03:52:39;5.72;;;2.83;;
70406;SDS011;57821;52.202;0.154;2022-07-11T03:55:06;7.80;;;2.50;;
70406;SDS011;57821;52.202;0.154;2022-07-11T03:57:33;7.50;;;2.80;;
70406;SDS011;57821;52.202;0.154;2022-07-11T04:00:00;5.63;;;2.67;;
70406;SDS011;57821;52.202;0.154;2022-07-11T04:02:30;7.43;;;2.88;;
70406;SDS011;57821;52.202;0.154;2022-07-11T04:04:56;5.75;;;2.63;;
70406;SDS011;57821;52.202;0.154;2022-07-11T04:07:23;6.15;;;2.40;;
70406;SDS011;57821;52.202;0.154;2022-07-11T04:09:50;5.68;;;2.55;;
70406;SDS011;57821;52.202;0.154;2022-07-11T04:12:16;6.25;;;2.38;;
70406;SDS011;57821;52.202;0.154;2022-07-11T04:14:43;7.60;;;2.83;;
70406;SDS011;57821;52.202;0.154;2022-07-11T04:17:10;6.25;;;2.50;;
70406;SDS011;57821;52.202;0.154;2022-07-11T04:19:37;6.25;;;1.90;;
70406;SDS011;57821;52.202;0.154;2022-07-11T04:22:03;6.75;;;2.35;;
70406;SDS011;57821;52.202;0.154;2022-07-11T04:24:30;7.82;;;2.63;;
70406;SDS011;57821;52.202;0.154;2022-07-11T04:26:57;5.32;;;2.33;;
70406;SDS011;57821;52.202;0.154;2022-07-11T04:29:24;9.00;;;2.00;;
70406;SDS011;57821;52.202;0.154;2022-07-11T04:31:50;7.10;;;2.60;;
70406;SDS011;57821;52.202;0.154;2022-07-11T04:34:17;7.35;;;2.92;;
70406;SDS011;57821;52.202;0.154;2022-07-11T04:36:44;6.20;;;2.45;;
70406;SDS011;57821;52.202;0.154;2022-07-11T04:39:11;7.70;;;2.75;;
70406;SDS011;57821;52.202;0.154;2022-07-11T04:41:38;4.72;;;2.10;;
70406;SDS011;57821;52.202;0.154;2022-07-11T04:44:05;4.55;;;2.38;;
70406;SDS011;57821;52.202;0.154;2022-07-11T04:46:31;6.90;;;2.67;;
70406;SDS011;57821;52.202;0.154;2022-07-11T04:48:58;6.38;;;2.70;;
70406;SDS011;57821;52.202;0.154;2022-07-11T04:51:25;8.38;;;2.10;;
70406;SDS011;57821;52.202;0.154;2022-07-11T04:53:51;6.03;;;2.40;;
70406;SDS011;57821;52.202;0.154;2022-07-11T04:56:18;7.88;;;2.30;;
70406;SDS011;57821;52.202;0.154;2022-07-11T04:58:45;5.15;;;2.40;;
70406;SDS011;57821;52.202;0.154;2022-07-11T05:01:11;7.20;;;2.17;;
70406;SDS011;57821;52.202;0.154;2022-07-11T05:03:38;7.32;;;2.33;;
70406;SDS011;57821;52.202;0.154;2022-07-11T05:06:05;5.13;;;2.20;;
70406;SDS011;57821;52.202;0.154;2022-07-11T05:08:32;6.00;;;2.55;;
70406;SDS011;57821;52.202;0.154;2022-07-11T05:10:58;5.40;;;2.10;;
70406;SDS011;57821;52.202;0.154;2022-07-11T05:13:25;6.47;;;2.20;;
70406;SDS011;57821;52.202;0.154;2022-07-11T05:15:51;6.53;;;2.45;;
70406;SDS011;57821;52.202;0.154;2022-07-11T05:18:18;6.13;;;2.38;;
70406;SDS011;57821;52.202;0.154;2022-07-11T05:20:45;4.93;;;1.92;;
70406;SDS011;57821;52.202;0.154;2022-07-11T05:23:11;7.72;;;2.50;;
70406;SDS011;57821;52.202;0.154;2022-07-11T05:25:38;5.88;;;2.17;;
70406;SDS011;57821;52.202;0.154;2022-07-11T05:28:04;5.68;;;2.00;;
70406;SDS011;57821;52.202;0.154;2022-07-11T05:30:31;6.05;;;2.08;;
70406;SDS011;57821;52.202;0.154;2022-07-11T05:32:58;6.80;;;2.17;;
70406;SDS011;57821;52.202;0.154;2022-07-11T05:35:25;5.10;;;2.05;;
70406;SDS011;57821;52.202;0.154;2022-07-11T05:37:51;11.18;;;2.35;;
70406;SDS011;57821;52.202;0.154;2022-07-11T05:40:18;6.40;;;2.20;;
70406;SDS011;57821;52.202;0.154;2022-07-11T05:42:45;5.45;;;2.00;;
70406;SDS011;57821;52.202;0.154;2022-07-11T05:45:11;6.57;;;2.05;;
70406;SDS011;57821;52.202;0.154;2022-07-11T05:47:38;7.82;;;2.35;;
70406;SDS011;57821;52.202;0.154;2022-07-11T05:50:05;5.15;;;2.40;;
70406;SDS011;57821;52.202;0.154;2022-07-11T05:52:31;6.35;;;1.85;;
70406;SDS011;57821;52.202;0.154;2022-07-11T05:54:58;6.70;;;1.88;;
70406;SDS011;57821;52.202;0.154;2022-07-11T05:57:25;4.63;;;1.90;;
70406;SDS011;57821;52.202;0.154;2022-07-11T05:59:52;5.72;;;2.00;;
70406;SDS011;57821;52.202;0.154;2022-07-11T06:02:18;5.35;;;2.25;;
70406;SDS011;57821;52.202;0.154;2022-07-11T06:04:45;6.18;;;1.98;;
70406;SDS011;57821;52.202;0.154;2022-07-11T06:07:11;5.00;;;1.90;;
70406;SDS011;57821;52.202;0.154;2022-07-11T06:09:38;5.43;;;2.00;;
70406;SDS011;57821;52.202;0.154;2022-07-11T06:12:05;4.93;;;2.10;;
70406;SDS011;57821;52.202;0.154;2022-07-11T06:14:31;5.13;;;1.90;;
70406;SDS011;57821;52.202;0.154;2022-07-11T06:17:01;6.43;;;2.40;;
70406;SDS011;57821;52.202;0.154;2022-07-11T06:19:27;6.57;;;2.40;;
70406;SDS011;57821;52.202;0.154;2022-07-11T06:21:54;5.68;;;1.90;;
70406;SDS011;57821;52.202;0.154;2022-07-11T06:24:20;6.85;;;2.17;;
70406;SDS011;57821;52.202;0.154;2022-07-11T06:26:47;4.75;;;1.90;;
70406;SDS011;57821;52.202;0.154;2022-07-11T06:29:14;5.00;;;1.98;;
70406;SDS011;57821;52.202;0.154;2022-07-11T06:31:40;4.50;;;1.90;;
70406;SDS011;57821;52.202;0.154;2022-07-11T06:34:07;5.47;;;2.20;;
70406;SDS011;57821;52.202;0.154;2022-07-11T06:36:33;6.03;;;2.08;;
70406;SDS011;57821;52.202;0.154;2022-07-11T06:39:00;4.88;;;1.90;;
70406;SDS011;57821;52.202;0.154;2022-07-11T06:41:27;4.70;;;1.63;;
70406;SDS011;57821;52.202;0.154;2022-07-11T06:43:53;6.65;;;2.15;;
70406;SDS011;57821;52.202;0.154;2022-07-11T06:46:20;4.15;;;1.85;;
70406;SDS011;57821;52.202;0.154;2022-07-11T06:48:46;8.73;;;2.10;;
70406;SDS011;57821;52.202;0.154;2022-07-11T06:51:13;5.22;;;1.75;;
70406;SDS011;57821;52.202;0.154;2022-07-11T06:53:40;5.15;;;2.08;;
70406;SDS011;57821;52.202;0.154;2022-07-11T06:56:07;7.18;;;2.00;;
70406;SDS011;57821;52.202;0.154;2022-07-11T06:58:33;8.10;;;2.83;;
70406;SDS011;57821;52.202;0.154;2022-07-11T07:01:01;5.30;;;1.90;;
70406;SDS011;57821;52.202;0.154;2022-07-11T07:03:32;4.82;;;2.13;;
70406;SDS011;57821;52.202;0.154;2022-07-11T07:06:00;5.25;;;1.85;;
70406;SDS011;57821;52.202;0.154;2022-07-11T07:08:28;7.82;;;2.40;;
70406;SDS011;57821;52.202;0.154;2022-07-11T07:10:56;6.40;;;1.75;;
70406;SDS011;57821;52.202;0.154;2022-07-11T07:13:29;5.38;;;1.80;;
70406;SDS011;57821;52.202;0.154;2022-07-11T07:15:56;3.97;;;1.63;;
70406;SDS011;57821;52.202;0.154;2022-07-11T07:18:23;6.15;;;1.90;;
70406;SDS011;57821;52.202;0.154;2022-07-11T07:20:51;5.18;;;1.85;;
70406;SDS011;57821;52.202;0.154;2022-07-11T07:23:18;7.80;;;2.30;;
70406;SDS011;57821;52.202;0.154;2022-07-11T07:25:45;6.53;;;1.70;;
70406;SDS011;57821;52.202;0.154;2022-07-11T07:28:12;6.07;;;1.88;;
70406;SDS011;57821;52.202;0.154;2022-07-11T07:30:38;9.48;;;2.00;;
70406;SDS011;57821;52.202;0.154;2022-07-11T07:33:05;5.95;;;1.88;;
70406;SDS011;57821;52.202;0.154;2022-07-11T07:35:31;6.78;;;2.03;;
70406;SDS011;57821;52.202;0.154;2022-07-11T07:37:58;5.43;;;1.95;;
70406;SDS011;57821;52.202;0.154;2022-07-11T07:40:25;6.63;;;1.98;;
70406;SDS011;57821;52.202;0.154;2022-07-11T07:42:54;6.38;;;1.75;;
70406;SDS011;57821;52.202;0.154;2022-07-11T07:45:21;4.53;;;1.77;;
70406;SDS011;57821;52.202;0.154;2022-07-11T07:47:48;5.80;;;1.73;;
70406;SDS011;57821;52.202;0.154;2022-07-11T07:50:14;4.75;;;1.85;;
70406;SDS011;57821;52.202;0.154;2022-07-11T07:52:41;4.38;;;1.90;;
70406;SDS011;57821;52.202;0.154;2022-07-11T07:55:08;4.72;;;1.75;;
70406;SDS011;57821;52.202;0.154;2022-07-11T07:57:35;5.40;;;1.70;;
70406;SDS011;57821;52.202;0.154;2022-07-11T08:00:02;6.57;;;1.70;;
70406;SDS011;57821;52.202;0.154;2022-07-11T08:02:36;6.82;;;1.95;;
70406;SDS011;57821;52.202;0.154;2022-07-11T08:05:03;7.80;;;2.03;;
70406;SDS011;57821;52.202;0.154;2022-07-11T08:07:30;6.40;;;1.60;;
70406;SDS011;57821;52.202;0.154;2022-07-11T08:09:57;6.15;;;1.88;;
70406;SDS011;57821;52.202;0.154;2022-07-11T08:12:23;7.00;;;2.20;;
70406;SDS011;57821;52.202;0.154;2022-07-11T08:14:50;5.53;;;2.08;;
70406;SDS011;57821;52.202;0.154;2022-07-11T08:17:19;8.45;;;2.10;;
70406;SDS011;57821;52.202;0.154;2022-07-11T08:19:46;5.60;;;1.85;;
70406;SDS011;57821;52.202;0.154;2022-07-11T08:22:13;6.63;;;2.25;;
70406;SDS011;57821;52.202;0.154;2022-07-11T08:24:39;5.93;;;2.00;;
70406;SDS011;57821;52.202;0.154;2022-07-11T08:27:06;4.63;;;1.80;;
70406;SDS011;57821;52.202;0.154;2022-07-11T08:29:52;6.13;;;1.83;;
70406;SDS011;57821;52.202;0.154;2022-07-11T08:32:19;5.43;;;2.00;;
70406;SDS011;57821;52.202;0.154;2022-07-11T08:34:46;6.63;;;1.92;;
70406;SDS011;57821;52.202;0.154;2022-07-11T08:37:12;5.70;;;1.88;;
70406;SDS011;57821;52.202;0.154;2022-07-11T08:39:39;4.28;;;1.75;;
70406;SDS011;57821;52.202;0.154;2022-07-11T08:42:12;7.28;;;1.83;;
70406;SDS011;57821;52.202;0.154;2022-07-11T08:44:41;12.73;;;2.20;;
70406;SDS011;57821;52.202;0.154;2022-07-11T08:47:07;7.60;;;1.77;;
70406;SDS011;57821;52.202;0.154;2022-07-11T08:49:35;5.72;;;1.75;;
70406;SDS011;57821;52.202;0.154;2022-07-11T08:52:02;5.35;;;1.83;;
70406;SDS011;57821;52.202;0.154;2022-07-11T08:54:29;4.78;;;1.70;;
70406;SDS011;57821;52.202;0.154;2022-07-11T08:56:55;5.15;;;1.60;;
70406;SDS011;57821;52.202;0.154;2022-07-11T08:59:23;7.03;;;1.50;;
70406;SDS011;57821;52.202;0.154;2022-07-11T09:01:53;7.75;;;1.50;;
70406;SDS011;57821;52.202;0.154;2022-07-11T09:04:23;6.07;;;1.40;;
70406;SDS011;57821;52.202;0.154;2022-07-11T09:06:50;4.65;;;1.63;;
70406;SDS011;57821;52.202;0.154;2022-07-11T09:09:17;8.43;;;1.17;;
70406;SDS011;57821;52.202;0.154;2022-07-11T09:11:51;4.65;;;1.25;;
70406;SDS011;57821;52.202;0.154;2022-07-11T09:14:27;6.43;;;1.30;;
70406;SDS011;57821;52.202;0.154;2022-07-11T09:19:27;4.50;;;1.40;;
70406;SDS011;57821;52.202;0.154;2022-07-11T09:21:56;5.30;;;1.10;;
70406;SDS011;57821;52.202;0.154;2022-07-11T09:24:23;4.78;;;1.25;;
70406;SDS011;57821;52.202;0.154;2022-07-11T09:26:50;3.33;;;1.10;;
70406;SDS011;57821;52.202;0.154;2022-07-11T09:29:18;4.43;;;1.40;;
70406;SDS011;57821;52.202;0.154;2022-07-11T09:31:46;6.53;;;1.38;;
70406;SDS011;57821;52.202;0.154;2022-07-11T09:34:15;5.72;;;1.13;;
70406;SDS011;57821;52.202;0.154;2022-07-11T09:36:43;5.88;;;1.30;;
70406;SDS011;57821;52.202;0.154;2022-07-11T09:39:15;4.80;;;1.45;;
70406;SDS011;57821;52.202;0.154;2022-07-11T09:41:42;5.53;;;1.17;;
70406;SDS011;57821;52.202;0.154;2022-07-11T09:44:11;4.20;;;1.40;;
70406;SDS011;57821;52.202;0.154;2022-07-11T09:46:41;3.78;;;1.30;;
70406;SDS011;57821;52.202;0.154;2022-07-11T09:49:09;6.90;;;1.42;;
70406;SDS011;57821;52.202;0.154;2022-07-11T09:51:36;8.02;;;1.30;;
70406;SDS011;57821;52.202;0.154;2022-07-11T09:54:04;6.78;;;1.30;;
70406;SDS011;57821;52.202;0.154;2022-07-11T09:59:19;3.85;;;1.27;;
70406;SDS011;57821;52.202;0.154;2022-07-11T10:01:45;9.20;;;1.48;;
70406;SDS011;57821;52.202;0.154;2022-07-11T10:04:12;4.53;;;1.58;;
70406;SDS011;57821;52.202;0.154;2022-07-11T10:06:44;7.35;;;1.40;;
70406;SDS011;57821;52.202;0.154;2022-07-11T10:09:10;5.18;;;1.10;;
70406;SDS011;57821;52.202;0.154;2022-07-11T10:11:37;5.55;;;1.25;;
70406;SDS011;57821;52.202;0.154;2022-07-11T10:14:05;6.05;;;1.33;;
70406;SDS011;57821;52.202;0.154;2022-07-11T10:29:50;3.42;;;1.13;;
70406;SDS011;57821;52.202;0.154;2022-07-11T10:32:18;3.65;;;0.80;;
70406;SDS011;57821;52.202;0.154;2022-07-11T10:34:45;3.35;;;0.90;;
70406;SDS011;57821;52.202;0.154;2022-07-11T10:37:12;4.03;;;1.00;;
70406;SDS011;57821;52.202;0.154;2022-07-11T10:39:39;4.35;;;0.90;;
70406;SDS011;57821;52.202;0.154;2022-07-11T10:42:23;2.72;;;0.90;;
70406;SDS011;57821;52.202;0.154;2022-07-11T10:45:06;4.15;;;1.00;;
70406;SDS011;57821;52.202;0.154;2022-07-11T10:47:35;3.60;;;0.80;;
70406;SDS011;57821;52.202;0.154;2022-07-11T10:53:06;3.53;;;1.00;;
70406;SDS011;57821;52.202;0.154;2022-07-11T10:55:35;3.85;;;1.00;;
70406;SDS011;57821;52.202;0.154;2022-07-11T10:58:13;4.25;;;1.00;;
70406;SDS011;57821;52.202;0.154;2022-07-11T11:00:45;5.72;;;1.35;;
70406;SDS011;57821;52.202;0.154;2022-07-11T11:03:15;5.00;;;0.90;;
70406;SDS011;57821;52.202;0.154;2022-07-11T11:10:59;5.00;;;0.90;;
70406;SDS011;57821;52.202;0.154;2022-07-11T11:13:27;3.63;;;1.02;;
70406;SDS011;57821;52.202;0.154;2022-07-11T11:15:58;5.25;;;1.15;;
70406;SDS011;57821;52.202;0.154;2022-07-11T11:23:30;5.05;;;1.23;;
70406;SDS011;57821;52.202;0.154;2022-07-11T11:26:06;3.65;;;1.10;;
70406;SDS011;57821;52.202;0.154;2022-07-11T11:28:36;3.28;;;0.93;;
70406;SDS011;57821;52.202;0.154;2022-07-11T11:31:05;3.75;;;0.90;;
70406;SDS011;57821;52.202;0.154;2022-07-11T11:33:33;3.33;;;0.80;;
70406;SDS011;57821;52.202;0.154;2022-07-11T11:36:04;5.25;;;1.00;;
70406;SDS011;57821;52.202;0.154;2022-07-11T11:38:34;3.08;;;0.93;;
70406;SDS011;57821;52.202;0.154;2022-07-11T11:41:06;3.00;;;0.80;;
70406;SDS011;57821;52.202;0.154;2022-07-11T11:43:36;3.08;;;0.88;;
70406;SDS011;57821;52.202;0.154;2022-07-11T11:46:03;6.40;;;1.20;;
70406;SDS011;57821;52.202;0.154;2022-07-11T11:48:30;6.72;;;0.95;;
70406;SDS011;57821;52.202;0.154;2022-07-11T11:53:39;3.15;;;1.00;;
70406;SDS011;57821;52.202;0.154;2022-07-11T11:56:14;3.88;;;0.90;;
70406;SDS011;57821;52.202;0.154;2022-07-11T11:58:42;3.15;;;0.95;;
70406;SDS011;57821;52.202;0.154;2022-07-11T12:01:13;3.20;;;0.88;;
70406;SDS011;57821;52.202;0.154;2022-07-11T12:06:17;3.13;;;0.80;;
70406;SDS011;57821;52.202;0.154;2022-07-11T12:08:48;3.15;;;0.80;;
70406;SDS011;57821;52.202;0.154;2022-07-11T12:11:15;2.83;;;0.85;;
70406;SDS011;57821;52.202;0.154;2022-07-11T12:13:42;2.78;;;0.80;;
70406;SDS011;57821;52.202;0.154;2022-07-11T12:16:16;3.80;;;1.10;;
70406;SDS011;57821;52.202;0.154;2022-07-11T12:18:44;2.83;;;0.70;;
70406;SDS011;57821;52.202;0.154;2022-07-11T12:21:11;3.55;;;0.90;;
70406;SDS011;57821;52.202;0.154;2022-07-11T12:23:39;4.57;;;1.23;;
70406;SDS011;57821;52.202;0.154;2022-07-11T12:26:06;2.60;;;0.70;;
70406;SDS011;57821;52.202;0.154;2022-07-11T12:28:33;7.07;;;1.02;;
70406;SDS011;57821;52.202;0.154;2022-07-11T12:30:59;4.75;;;0.98;;
70406;SDS011;57821;52.202;0.154;2022-07-11T12:33:26;3.15;;;0.98;;
70406;SDS011;57821;52.202;0.154;2022-07-11T12:38:23;3.13;;;0.93;;
70406;SDS011;57821;52.202;0.154;2022-07-11T12:41:01;3.45;;;1.10;;
70406;SDS011;57821;52.202;0.154;2022-07-11T12:43:39;2.85;;;0.95;;
70406;SDS011;57821;52.202;0.154;2022-07-11T12:46:06;4.93;;;0.88;;
70406;SDS011;57821;52.202;0.154;2022-07-11T12:48:39;3.13;;;1.00;;
70406;SDS011;57821;52.202;0.154;2022-07-11T12:51:05;5.28;;;0.82;;
70406;SDS011;57821;52.202;0.154;2022-07-11T12:53:32;3.00;;;0.80;;
70406;SDS011;57821;52.202;0.154;2022-07-11T12:55:58;5.65;;;0.93;;
70406;SDS011;57821;52.202;0.154;2022-07-11T12:58:25;8.23;;;1.00;;
70406;SDS011;57821;52.202;0.154;2022-07-11T13:00:58;3.15;;;0.90;;
70406;SDS011;57821;52.202;0.154;2022-07-11T13:03:35;4.78;;;0.95;;
70406;SDS011;57821;52.202;0.154;2022-07-11T13:06:02;5.20;;;0.90;;
70406;SDS011;57821;52.202;0.154;2022-07-11T13:08:30;3.22;;;0.70;;
70406;SDS011;57821;52.202;0.154;2022-07-11T13:10:57;3.67;;;1.05;;
70406;SDS011;57821;52.202;0.154;2022-07-11T13:13:32;3.85;;;0.95;;
70406;SDS011;57821;52.202;0.154;2022-07-11T13:15:59;3.75;;;0.93;;
70406;SDS011;57821;52.202;0.154;2022-07-11T13:18:25;3.45;;;0.95;;
70406;SDS011;57821;52.202;0.154;2022-07-11T13:20:52;3.80;;;0.88;;
70406;SDS011;57821;52.202;0.154;2022-07-11T13:23:19;3.38;;;1.10;;
70406;SDS011;57821;52.202;0.154;2022-07-11T13:25:45;3.08;;;0.93;;
70406;SDS011;57821;52.202;0.154;2022-07-11T13:28:12;3.30;;;0.85;;
70406;SDS011;57821;52.202;0.154;2022-07-11T13:30:39;4.47;;;1.10;;
70406;SDS011;57821;52.202;0.154;2022-07-11T13:33:25;2.95;;;0.75;;
70406;SDS011;57821;52.202;0.154;2022-07-11T13:35:52;4.65;;;0.90;;
70406;SDS011;57821;52.202;0.154;2022-07-11T13:38:19;3.05;;;0.98;;
70406;SDS011;57821;52.202;0.154;2022-07-11T13:40:46;3.30;;;1.00;;
70406;SDS011;57821;52.202;0.154;2022-07-11T13:43:13;3.45;;;0.77;;
70406;SDS011;57821;52.202;0.154;2022-07-11T13:45:41;4.55;;;1.10;;
70406;SDS011;57821;52.202;0.154;2022-07-11T13:48:09;3.72;;;0.90;;
70406;SDS011;57821;52.202;0.154;2022-07-11T13:50:35;3.47;;;0.85;;
70406;SDS011;57821;52.202;0.154;2022-07-11T13:53:02;4.22;;;0.95;;
70406;SDS011;57821;52.202;0.154;2022-07-11T13:55:29;5.20;;;1.00;;
70406;SDS011;57821;52.202;0.154;2022-07-11T13:57:57;3.70;;;1.10;;
70406;SDS011;57821;52.202;0.154;2022-07-11T14:00:24;4.43;;;1.08;;
70406;SDS011;57821;52.202;0.154;2022-07-11T14:02:51;2.63;;;0.80;;
70406;SDS011;57821;52.202;0.154;2022-07-11T14:05:18;5.13;;;1.15;;
70406;SDS011;57821;52.202;0.154;2022-07-11T14:07:45;4.65;;;1.30;;
70406;SDS011;57821;52.202;0.154;2022-07-11T14:10:13;3.25;;;1.00;;
70406;SDS011;57821;52.202;0.154;2022-07-11T14:12:40;4.35;;;1.00;;
70406;SDS011;57821;52.202;0.154;2022-07-11T14:15:07;6.25;;;1.00;;
70406;SDS011;57821;52.202;0.154;2022-07-11T14:17:35;4.05;;;0.85;;
70406;SDS011;57821;52.202;0.154;2022-07-11T14:20:02;3.05;;;0.90;;
70406;SDS011;57821;52.202;0.154;2022-07-11T14:22:29;5.93;;;1.00;;
70406;SDS011;57821;52.202;0.154;2022-07-11T14:24:56;3.40;;;1.15;;
70406;SDS011;57821;52.202;0.154;2022-07-11T14:27:22;4.18;;;0.77;;
70406;SDS011;57821;52.202;0.154;2022-07-11T14:29:49;4.65;;;0.90;;
70406;SDS011;57821;52.202;0.154;2022-07-11T14:32:17;4.03;;;1.00;;
70406;SDS011;57821;52.202;0.154;2022-07-11T14:34:44;2.90;;;0.88;;
70406;SDS011;57821;52.202;0.154;2022-07-11T14:37:10;4.55;;;0.80;;
70406;SDS011;57821;52.202;0.154;2022-07-11T14:39:37;2.78;;;0.88;;
70406;SDS011;57821;52.202;0.154;2022-07-11T14:42:04;2.90;;;0.88;;
70406;SDS011;57821;52.202;0.154;2022-07-11T14:44:50;5.15;;;1.15;;
70406;SDS011;57821;52.202;0.154;2022-07-11T14:47:17;3.25;;;0.90;;
70406;SDS011;57821;52.202;0.154;2022-07-11T14:49:43;5.47;;;1.10;;
70406;SDS011;57821;52.202;0.154;2022-07-11T14:52:10;6.47;;;1.20;;
70406;SDS011;57821;52.202;0.154;2022-07-11T14:54:40;5.70;;;1.80;;
70406;SDS011;57821;52.202;0.154;2022-07-11T14:57:07;5.90;;;1.20;;
70406;SDS011;57821;52.202;0.154;2022-07-11T14:59:34;6.45;;;1.15;;
70406;SDS011;57821;52.202;0.154;2022-07-11T15:02:00;4.65;;;1.00;;
70406;SDS011;57821;52.202;0.154;2022-07-11T15:04:27;4.55;;;0.90;;
70406;SDS011;57821;52.202;0.154;2022-07-11T15:06:54;4.75;;;1.10;;
70406;SDS011;57821;52.202;0.154;2022-07-11T15:09:20;2.85;;;0.95;;
70406;SDS011;57821;52.202;0.154;2022-07-11T15:11:47;3.65;;;1.10;;
70406;SDS011;57821;52.202;0.154;2022-07-11T15:14:14;6.25;;;1.10;;
70406;SDS011;57821;52.202;0.154;2022-07-11T15:16:40;2.83;;;0.80;;
70406;SDS011;57821;52.202;0.154;2022-07-11T15:19:12;3.00;;;0.90;;
70406;SDS011;57821;52.202;0.154;2022-07-11T15:21:39;4.53;;;0.90;;
70406;SDS011;57821;52.202;0.154;2022-07-11T15:24:05;4.30;;;1.00;;
70406;SDS011;57821;52.202;0.154;2022-07-11T15:26:32;3.33;;;1.00;;
70406;SDS011;57821;52.202;0.154;2022-07-11T15:28:59;6.82;;;1.13;;
70406;SDS011;57821;52.202;0.154;2022-07-11T15:31:25;5.30;;;1.23;;
70406;SDS011;57821;52.202;0.154;2022-07-11T15:33:52;2.63;;;0.82;;